<?xml version="1.0" encoding="UTF-8" standalone="no" ?>
<gpx xmlns="http://www.topografix.com/GPX/1/1" xmlns:xsi="http://www.w3.org/2001/XMLSchema-instance" xsi:schemaLocation="http://www.topografix.com/GPX/1/1 http://www.topografix.com/GPX/1/1/gpx.xsd" version="1.1" creator="VisuGPX - https://www.visugpx.com">
  <metadata>
    <name>VacancesDricouZoe</name>
  </metadata>
  <trk>
    <name><![CDATA[Journal actif: 2021-07-07 12:38]]></name>
    <trkseg>
      <trkpt lat="43.69795" lon="-1.43691">
        <ele>3.98</ele>
        <time>2021-07-07T14:38:58Z</time>
      </trkpt>
      <trkpt lat="43.69791" lon="-1.43688">
        <ele>3.5</ele>
        <time>2021-07-07T14:39:01Z</time>
      </trkpt>
      <trkpt lat="43.69791" lon="-1.43687">
        <ele>3.5</ele>
        <time>2021-07-07T14:39:02Z</time>
      </trkpt>
      <trkpt lat="43.69792" lon="-1.43675">
        <ele>3.5</ele>
        <time>2021-07-07T14:39:03Z</time>
      </trkpt>
      <trkpt lat="43.69794" lon="-1.43675">
        <ele>3.5</ele>
        <time>2021-07-07T14:39:04Z</time>
      </trkpt>
      <trkpt lat="43.69796" lon="-1.43674">
        <ele>3.02</ele>
        <time>2021-07-07T14:39:05Z</time>
      </trkpt>
      <trkpt lat="43.69846" lon="-1.43631">
        <ele>1.58</ele>
        <time>2021-07-07T14:39:24Z</time>
      </trkpt>
      <trkpt lat="43.69877" lon="-1.43641">
        <ele>2.54</ele>
        <time>2021-07-07T14:39:36Z</time>
      </trkpt>
      <trkpt lat="43.69926" lon="-1.43644">
        <ele>3.5</ele>
        <time>2021-07-07T14:39:52Z</time>
      </trkpt>
      <trkpt lat="43.69953" lon="-1.43623">
        <ele>2.06</ele>
        <time>2021-07-07T14:40:04Z</time>
      </trkpt>
      <trkpt lat="43.69957" lon="-1.43573">
        <ele>1.58</ele>
        <time>2021-07-07T14:40:17Z</time>
      </trkpt>
      <trkpt lat="43.69979" lon="-1.4352">
        <ele>3.02</ele>
        <time>2021-07-07T14:40:29Z</time>
      </trkpt>
      <trkpt lat="43.69989" lon="-1.4346">
        <ele>3.5</ele>
        <time>2021-07-07T14:40:44Z</time>
      </trkpt>
      <trkpt lat="43.69972" lon="-1.43393">
        <ele>0.14</ele>
        <time>2021-07-07T14:40:59Z</time>
      </trkpt>
      <trkpt lat="43.69955" lon="-1.4337">
        <ele>0.14</ele>
        <time>2021-07-07T14:41:05Z</time>
      </trkpt>
      <trkpt lat="43.69956" lon="-1.43365">
        <ele>0.14</ele>
        <time>2021-07-07T14:41:06Z</time>
      </trkpt>
      <trkpt lat="43.69962" lon="-1.43357">
        <ele>0.14</ele>
        <time>2021-07-07T14:41:07Z</time>
      </trkpt>
      <trkpt lat="43.69962" lon="-1.43357">
        <ele>0.62</ele>
        <time>2021-07-07T14:41:08Z</time>
      </trkpt>
      <trkpt lat="43.69967" lon="-1.43354">
        <ele>1.1</ele>
        <time>2021-07-07T14:41:09Z</time>
      </trkpt>
      <trkpt lat="43.69971" lon="-1.43352">
        <ele>1.1</ele>
        <time>2021-07-07T14:41:10Z</time>
      </trkpt>
      <trkpt lat="43.69976" lon="-1.43354">
        <ele>1.58</ele>
        <time>2021-07-07T14:41:11Z</time>
      </trkpt>
      <trkpt lat="43.69986" lon="-1.43355">
        <ele>2.06</ele>
        <time>2021-07-07T14:41:13Z</time>
      </trkpt>
      <trkpt lat="43.69992" lon="-1.43355">
        <ele>2.06</ele>
        <time>2021-07-07T14:41:14Z</time>
      </trkpt>
      <trkpt lat="43.69998" lon="-1.43355">
        <ele>2.06</ele>
        <time>2021-07-07T14:41:15Z</time>
      </trkpt>
      <trkpt lat="43.70124" lon="-1.43354">
        <ele>0.62</ele>
        <time>2021-07-07T14:41:32Z</time>
      </trkpt>
      <trkpt lat="43.70271" lon="-1.43342">
        <ele>-3.71</ele>
        <time>2021-07-07T14:41:51Z</time>
      </trkpt>
      <trkpt lat="43.70376" lon="-1.43303">
        <ele>2.54</ele>
        <time>2021-07-07T14:42:06Z</time>
      </trkpt>
      <trkpt lat="43.70502" lon="-1.43212">
        <ele>-2.75</ele>
        <time>2021-07-07T14:42:23Z</time>
      </trkpt>
      <trkpt lat="43.70516" lon="-1.43198">
        <ele>-3.71</ele>
        <time>2021-07-07T14:42:26Z</time>
      </trkpt>
      <trkpt lat="43.70516" lon="-1.43198">
        <ele>-4.19</ele>
        <time>2021-07-07T14:42:27Z</time>
      </trkpt>
      <trkpt lat="43.7052" lon="-1.43193">
        <ele>-4.19</ele>
        <time>2021-07-07T14:42:28Z</time>
      </trkpt>
      <trkpt lat="43.70523" lon="-1.43188">
        <ele>-4.19</ele>
        <time>2021-07-07T14:42:29Z</time>
      </trkpt>
      <trkpt lat="43.70527" lon="-1.43182">
        <ele>-4.19</ele>
        <time>2021-07-07T14:42:30Z</time>
      </trkpt>
      <trkpt lat="43.70532" lon="-1.43178">
        <ele>-4.19</ele>
        <time>2021-07-07T14:42:31Z</time>
      </trkpt>
      <trkpt lat="43.70537" lon="-1.43176">
        <ele>-4.19</ele>
        <time>2021-07-07T14:42:32Z</time>
      </trkpt>
      <trkpt lat="43.70543" lon="-1.43175">
        <ele>-4.19</ele>
        <time>2021-07-07T14:42:33Z</time>
      </trkpt>
      <trkpt lat="43.70553" lon="-1.43167">
        <ele>-3.71</ele>
        <time>2021-07-07T14:42:34Z</time>
      </trkpt>
      <trkpt lat="43.70553" lon="-1.43167">
        <ele>-3.71</ele>
        <time>2021-07-07T14:42:35Z</time>
      </trkpt>
      <trkpt lat="43.70559" lon="-1.43162">
        <ele>-3.71</ele>
        <time>2021-07-07T14:42:36Z</time>
      </trkpt>
      <trkpt lat="43.70565" lon="-1.43157">
        <ele>-3.23</ele>
        <time>2021-07-07T14:42:37Z</time>
      </trkpt>
      <trkpt lat="43.70669" lon="-1.43067">
        <ele>-6.59</ele>
        <time>2021-07-07T14:42:51Z</time>
      </trkpt>
      <trkpt lat="43.70746" lon="-1.43031">
        <ele>-7.55</ele>
        <time>2021-07-07T14:43:02Z</time>
      </trkpt>
      <trkpt lat="43.70804" lon="-1.43012">
        <ele>-6.11</ele>
        <time>2021-07-07T14:43:13Z</time>
      </trkpt>
      <trkpt lat="43.70864" lon="-1.43003">
        <ele>-5.63</ele>
        <time>2021-07-07T14:43:24Z</time>
      </trkpt>
      <trkpt lat="43.70979" lon="-1.43021">
        <ele>-2.75</ele>
        <time>2021-07-07T14:43:37Z</time>
      </trkpt>
      <trkpt lat="43.71048" lon="-1.43036">
        <ele>-1.79</ele>
        <time>2021-07-07T14:43:47Z</time>
      </trkpt>
      <trkpt lat="43.71043" lon="-1.43039">
        <ele>-1.79</ele>
        <time>2021-07-07T14:43:48Z</time>
      </trkpt>
      <trkpt lat="43.71043" lon="-1.43039">
        <ele>-1.79</ele>
        <time>2021-07-07T14:43:49Z</time>
      </trkpt>
      <trkpt lat="43.71043" lon="-1.43043">
        <ele>-1.79</ele>
        <time>2021-07-07T14:43:50Z</time>
      </trkpt>
      <trkpt lat="43.71043" lon="-1.43046">
        <ele>-2.27</ele>
        <time>2021-07-07T14:43:51Z</time>
      </trkpt>
      <trkpt lat="43.71042" lon="-1.43054">
        <ele>-2.75</ele>
        <time>2021-07-07T14:43:52Z</time>
      </trkpt>
      <trkpt lat="43.71042" lon="-1.43054">
        <ele>-2.75</ele>
        <time>2021-07-07T14:43:53Z</time>
      </trkpt>
      <trkpt lat="43.71028" lon="-1.4307">
        <ele>-3.23</ele>
        <time>2021-07-07T14:43:57Z</time>
      </trkpt>
      <trkpt lat="43.71026" lon="-1.43076">
        <ele>-3.23</ele>
        <time>2021-07-07T14:43:58Z</time>
      </trkpt>
      <trkpt lat="43.71023" lon="-1.43088">
        <ele>-3.23</ele>
        <time>2021-07-07T14:43:59Z</time>
      </trkpt>
      <trkpt lat="43.71023" lon="-1.43088">
        <ele>-3.71</ele>
        <time>2021-07-07T14:44:00Z</time>
      </trkpt>
      <trkpt lat="43.71021" lon="-1.43094">
        <ele>-3.71</ele>
        <time>2021-07-07T14:44:01Z</time>
      </trkpt>
      <trkpt lat="43.71021" lon="-1.431">
        <ele>-3.71</ele>
        <time>2021-07-07T14:44:02Z</time>
      </trkpt>
      <trkpt lat="43.71023" lon="-1.43112">
        <ele>-3.71</ele>
        <time>2021-07-07T14:44:03Z</time>
      </trkpt>
      <trkpt lat="43.71023" lon="-1.43112">
        <ele>-3.71</ele>
        <time>2021-07-07T14:44:04Z</time>
      </trkpt>
      <trkpt lat="43.71025" lon="-1.43119">
        <ele>-3.71</ele>
        <time>2021-07-07T14:44:05Z</time>
      </trkpt>
      <trkpt lat="43.71066" lon="-1.43215">
        <ele>-2.27</ele>
        <time>2021-07-07T14:44:19Z</time>
      </trkpt>
      <trkpt lat="43.71074" lon="-1.43226">
        <ele>-2.27</ele>
        <time>2021-07-07T14:44:20Z</time>
      </trkpt>
      <trkpt lat="43.71078" lon="-1.43232">
        <ele>-2.27</ele>
        <time>2021-07-07T14:44:21Z</time>
      </trkpt>
      <trkpt lat="43.7109" lon="-1.43245">
        <ele>-1.79</ele>
        <time>2021-07-07T14:44:25Z</time>
      </trkpt>
      <trkpt lat="43.71094" lon="-1.43249">
        <ele>-1.3</ele>
        <time>2021-07-07T14:44:26Z</time>
      </trkpt>
      <trkpt lat="43.71098" lon="-1.43254">
        <ele>-1.3</ele>
        <time>2021-07-07T14:44:27Z</time>
      </trkpt>
      <trkpt lat="43.71099" lon="-1.43259">
        <ele>-0.82</ele>
        <time>2021-07-07T14:44:28Z</time>
      </trkpt>
      <trkpt lat="43.711" lon="-1.43265">
        <ele>-0.82</ele>
        <time>2021-07-07T14:44:29Z</time>
      </trkpt>
      <trkpt lat="43.71101" lon="-1.43271">
        <ele>-0.82</ele>
        <time>2021-07-07T14:44:30Z</time>
      </trkpt>
      <trkpt lat="43.71102" lon="-1.43277">
        <ele>-0.82</ele>
        <time>2021-07-07T14:44:31Z</time>
      </trkpt>
      <trkpt lat="43.71097" lon="-1.43285">
        <ele>-0.82</ele>
        <time>2021-07-07T14:44:32Z</time>
      </trkpt>
      <trkpt lat="43.71097" lon="-1.43285">
        <ele>-0.82</ele>
        <time>2021-07-07T14:44:33Z</time>
      </trkpt>
      <trkpt lat="43.71094" lon="-1.4329">
        <ele>-0.82</ele>
        <time>2021-07-07T14:44:34Z</time>
      </trkpt>
      <trkpt lat="43.71091" lon="-1.43295">
        <ele>-0.82</ele>
        <time>2021-07-07T14:44:35Z</time>
      </trkpt>
      <trkpt lat="43.71089" lon="-1.43299">
        <ele>-1.3</ele>
        <time>2021-07-07T14:44:36Z</time>
      </trkpt>
      <trkpt lat="43.71085" lon="-1.43299">
        <ele>-1.3</ele>
        <time>2021-07-07T14:44:37Z</time>
      </trkpt>
      <trkpt lat="43.71076" lon="-1.433">
        <ele>-1.3</ele>
        <time>2021-07-07T14:44:38Z</time>
      </trkpt>
      <trkpt lat="43.71076" lon="-1.433">
        <ele>-1.3</ele>
        <time>2021-07-07T14:44:39Z</time>
      </trkpt>
      <trkpt lat="43.71072" lon="-1.43297">
        <ele>-1.79</ele>
        <time>2021-07-07T14:44:40Z</time>
      </trkpt>
      <trkpt lat="43.71067" lon="-1.43294">
        <ele>-1.79</ele>
        <time>2021-07-07T14:44:41Z</time>
      </trkpt>
      <trkpt lat="43.71065" lon="-1.43287">
        <ele>-1.79</ele>
        <time>2021-07-07T14:44:42Z</time>
      </trkpt>
      <trkpt lat="43.71064" lon="-1.4328">
        <ele>-2.27</ele>
        <time>2021-07-07T14:44:43Z</time>
      </trkpt>
      <trkpt lat="43.71061" lon="-1.43273">
        <ele>-2.27</ele>
        <time>2021-07-07T14:44:44Z</time>
      </trkpt>
      <trkpt lat="43.71063" lon="-1.43265">
        <ele>-2.75</ele>
        <time>2021-07-07T14:44:45Z</time>
      </trkpt>
      <trkpt lat="43.71065" lon="-1.43257">
        <ele>-2.75</ele>
        <time>2021-07-07T14:44:46Z</time>
      </trkpt>
      <trkpt lat="43.71065" lon="-1.43246">
        <ele>-3.23</ele>
        <time>2021-07-07T14:44:47Z</time>
      </trkpt>
      <trkpt lat="43.71064" lon="-1.43237">
        <ele>-3.71</ele>
        <time>2021-07-07T14:44:48Z</time>
      </trkpt>
      <trkpt lat="43.71064" lon="-1.43228">
        <ele>-3.71</ele>
        <time>2021-07-07T14:44:49Z</time>
      </trkpt>
      <trkpt lat="43.7106" lon="-1.43205">
        <ele>-3.71</ele>
        <time>2021-07-07T14:44:50Z</time>
      </trkpt>
      <trkpt lat="43.71056" lon="-1.43196">
        <ele>-4.19</ele>
        <time>2021-07-07T14:44:51Z</time>
      </trkpt>
      <trkpt lat="43.70999" lon="-1.43072">
        <ele>-5.63</ele>
        <time>2021-07-07T14:45:06Z</time>
      </trkpt>
      <trkpt lat="43.70994" lon="-1.43061">
        <ele>-5.63</ele>
        <time>2021-07-07T14:45:08Z</time>
      </trkpt>
      <trkpt lat="43.70992" lon="-1.43055">
        <ele>-5.15</ele>
        <time>2021-07-07T14:45:09Z</time>
      </trkpt>
      <trkpt lat="43.7099" lon="-1.4305">
        <ele>-5.15</ele>
        <time>2021-07-07T14:45:10Z</time>
      </trkpt>
      <trkpt lat="43.70988" lon="-1.43045">
        <ele>-5.15</ele>
        <time>2021-07-07T14:45:11Z</time>
      </trkpt>
      <trkpt lat="43.70982" lon="-1.43045">
        <ele>-5.15</ele>
        <time>2021-07-07T14:45:12Z</time>
      </trkpt>
      <trkpt lat="43.70976" lon="-1.43044">
        <ele>-5.15</ele>
        <time>2021-07-07T14:45:13Z</time>
      </trkpt>
      <trkpt lat="43.70953" lon="-1.43042">
        <ele>-5.15</ele>
        <time>2021-07-07T14:45:15Z</time>
      </trkpt>
      <trkpt lat="43.7085" lon="-1.43043">
        <ele>-7.07</ele>
        <time>2021-07-07T14:45:28Z</time>
      </trkpt>
      <trkpt lat="43.70788" lon="-1.43053">
        <ele>-6.11</ele>
        <time>2021-07-07T14:45:38Z</time>
      </trkpt>
      <trkpt lat="43.70784" lon="-1.43055">
        <ele>-5.63</ele>
        <time>2021-07-07T14:45:39Z</time>
      </trkpt>
      <trkpt lat="43.70777" lon="-1.43047">
        <ele>-5.63</ele>
        <time>2021-07-07T14:45:40Z</time>
      </trkpt>
      <trkpt lat="43.70775" lon="-1.43042">
        <ele>-6.59</ele>
        <time>2021-07-07T14:45:41Z</time>
      </trkpt>
      <trkpt lat="43.70775" lon="-1.43042">
        <ele>-6.59</ele>
        <time>2021-07-07T14:45:42Z</time>
      </trkpt>
      <trkpt lat="43.70774" lon="-1.43037">
        <ele>-6.59</ele>
        <time>2021-07-07T14:45:43Z</time>
      </trkpt>
      <trkpt lat="43.70772" lon="-1.43032">
        <ele>-6.59</ele>
        <time>2021-07-07T14:45:44Z</time>
      </trkpt>
      <trkpt lat="43.70765" lon="-1.43004">
        <ele>-5.63</ele>
        <time>2021-07-07T14:45:52Z</time>
      </trkpt>
      <trkpt lat="43.70752" lon="-1.4291">
        <ele>-4.19</ele>
        <time>2021-07-07T14:46:03Z</time>
      </trkpt>
      <trkpt lat="43.70778" lon="-1.42767">
        <ele>-5.15</ele>
        <time>2021-07-07T14:46:16Z</time>
      </trkpt>
      <trkpt lat="43.70819" lon="-1.42605">
        <ele>-5.63</ele>
        <time>2021-07-07T14:46:28Z</time>
      </trkpt>
      <trkpt lat="43.70845" lon="-1.425">
        <ele>-7.55</ele>
        <time>2021-07-07T14:46:36Z</time>
      </trkpt>
      <trkpt lat="43.70857" lon="-1.42447">
        <ele>-8.51</ele>
        <time>2021-07-07T14:46:40Z</time>
      </trkpt>
      <trkpt lat="43.70857" lon="-1.42432">
        <ele>-8.51</ele>
        <time>2021-07-07T14:46:41Z</time>
      </trkpt>
      <trkpt lat="43.70857" lon="-1.42416">
        <ele>-8.51</ele>
        <time>2021-07-07T14:46:42Z</time>
      </trkpt>
      <trkpt lat="43.70847" lon="-1.42351">
        <ele>-8.03</ele>
        <time>2021-07-07T14:46:46Z</time>
      </trkpt>
      <trkpt lat="43.70843" lon="-1.42334">
        <ele>-7.55</ele>
        <time>2021-07-07T14:46:47Z</time>
      </trkpt>
      <trkpt lat="43.70829" lon="-1.42301">
        <ele>-6.59</ele>
        <time>2021-07-07T14:46:48Z</time>
      </trkpt>
      <trkpt lat="43.70736" lon="-1.42082">
        <ele>-1.79</ele>
        <time>2021-07-07T14:47:02Z</time>
      </trkpt>
      <trkpt lat="43.70661" lon="-1.41892">
        <ele>2.06</ele>
        <time>2021-07-07T14:47:14Z</time>
      </trkpt>
      <trkpt lat="43.7065" lon="-1.41876">
        <ele>3.02</ele>
        <time>2021-07-07T14:47:17Z</time>
      </trkpt>
      <trkpt lat="43.70646" lon="-1.41869">
        <ele>3.02</ele>
        <time>2021-07-07T14:47:18Z</time>
      </trkpt>
      <trkpt lat="43.70642" lon="-1.41863">
        <ele>3.02</ele>
        <time>2021-07-07T14:47:19Z</time>
      </trkpt>
      <trkpt lat="43.70629" lon="-1.41859">
        <ele>2.54</ele>
        <time>2021-07-07T14:47:21Z</time>
      </trkpt>
      <trkpt lat="43.70624" lon="-1.41854">
        <ele>3.02</ele>
        <time>2021-07-07T14:47:22Z</time>
      </trkpt>
      <trkpt lat="43.70619" lon="-1.41844">
        <ele>3.02</ele>
        <time>2021-07-07T14:47:23Z</time>
      </trkpt>
      <trkpt lat="43.70616" lon="-1.41836">
        <ele>2.54</ele>
        <time>2021-07-07T14:47:24Z</time>
      </trkpt>
      <trkpt lat="43.70617" lon="-1.41823">
        <ele>2.54</ele>
        <time>2021-07-07T14:47:25Z</time>
      </trkpt>
      <trkpt lat="43.70619" lon="-1.41814">
        <ele>2.54</ele>
        <time>2021-07-07T14:47:26Z</time>
      </trkpt>
      <trkpt lat="43.7063" lon="-1.41802">
        <ele>2.06</ele>
        <time>2021-07-07T14:47:27Z</time>
      </trkpt>
      <trkpt lat="43.7063" lon="-1.41802">
        <ele>2.06</ele>
        <time>2021-07-07T14:47:28Z</time>
      </trkpt>
      <trkpt lat="43.70635" lon="-1.41798">
        <ele>2.06</ele>
        <time>2021-07-07T14:47:29Z</time>
      </trkpt>
      <trkpt lat="43.7065" lon="-1.41796">
        <ele>2.06</ele>
        <time>2021-07-07T14:47:30Z</time>
      </trkpt>
      <trkpt lat="43.7065" lon="-1.41796">
        <ele>2.06</ele>
        <time>2021-07-07T14:47:31Z</time>
      </trkpt>
      <trkpt lat="43.70658" lon="-1.41794">
        <ele>1.58</ele>
        <time>2021-07-07T14:47:32Z</time>
      </trkpt>
      <trkpt lat="43.70678" lon="-1.41782">
        <ele>1.1</ele>
        <time>2021-07-07T14:47:33Z</time>
      </trkpt>
      <trkpt lat="43.70737" lon="-1.41738">
        <ele>0.62</ele>
        <time>2021-07-07T14:47:40Z</time>
      </trkpt>
      <trkpt lat="43.70747" lon="-1.41731">
        <ele>0.62</ele>
        <time>2021-07-07T14:47:41Z</time>
      </trkpt>
      <trkpt lat="43.70756" lon="-1.41725">
        <ele>0.62</ele>
        <time>2021-07-07T14:47:42Z</time>
      </trkpt>
      <trkpt lat="43.70765" lon="-1.41719">
        <ele>1.58</ele>
        <time>2021-07-07T14:47:43Z</time>
      </trkpt>
      <trkpt lat="43.70776" lon="-1.41718">
        <ele>1.58</ele>
        <time>2021-07-07T14:47:44Z</time>
      </trkpt>
      <trkpt lat="43.70787" lon="-1.41717">
        <ele>2.54</ele>
        <time>2021-07-07T14:47:45Z</time>
      </trkpt>
      <trkpt lat="43.70799" lon="-1.41716">
        <ele>3.02</ele>
        <time>2021-07-07T14:47:46Z</time>
      </trkpt>
      <trkpt lat="43.70809" lon="-1.41718">
        <ele>3.5</ele>
        <time>2021-07-07T14:47:47Z</time>
      </trkpt>
      <trkpt lat="43.70819" lon="-1.41722">
        <ele>3.5</ele>
        <time>2021-07-07T14:47:48Z</time>
      </trkpt>
      <trkpt lat="43.70831" lon="-1.41728">
        <ele>4.94</ele>
        <time>2021-07-07T14:47:49Z</time>
      </trkpt>
      <trkpt lat="43.70847" lon="-1.41744">
        <ele>5.42</ele>
        <time>2021-07-07T14:47:50Z</time>
      </trkpt>
      <trkpt lat="43.70856" lon="-1.41755">
        <ele>6.39</ele>
        <time>2021-07-07T14:47:51Z</time>
      </trkpt>
      <trkpt lat="43.70856" lon="-1.41755">
        <ele>6.87</ele>
        <time>2021-07-07T14:47:52Z</time>
      </trkpt>
      <trkpt lat="43.70864" lon="-1.41765">
        <ele>6.87</ele>
        <time>2021-07-07T14:47:53Z</time>
      </trkpt>
      <trkpt lat="43.70934" lon="-1.41877">
        <ele>4.94</ele>
        <time>2021-07-07T14:48:02Z</time>
      </trkpt>
      <trkpt lat="43.70944" lon="-1.41886">
        <ele>4.46</ele>
        <time>2021-07-07T14:48:03Z</time>
      </trkpt>
      <trkpt lat="43.70955" lon="-1.41895">
        <ele>3.5</ele>
        <time>2021-07-07T14:48:04Z</time>
      </trkpt>
      <trkpt lat="43.70966" lon="-1.41903">
        <ele>3.02</ele>
        <time>2021-07-07T14:48:05Z</time>
      </trkpt>
      <trkpt lat="43.70978" lon="-1.41909">
        <ele>2.06</ele>
        <time>2021-07-07T14:48:06Z</time>
      </trkpt>
      <trkpt lat="43.7099" lon="-1.41915">
        <ele>2.06</ele>
        <time>2021-07-07T14:48:07Z</time>
      </trkpt>
      <trkpt lat="43.71003" lon="-1.41917">
        <ele>2.06</ele>
        <time>2021-07-07T14:48:08Z</time>
      </trkpt>
      <trkpt lat="43.71019" lon="-1.41919">
        <ele>2.06</ele>
        <time>2021-07-07T14:48:09Z</time>
      </trkpt>
      <trkpt lat="43.71034" lon="-1.41921">
        <ele>2.06</ele>
        <time>2021-07-07T14:48:10Z</time>
      </trkpt>
      <trkpt lat="43.71047" lon="-1.41918">
        <ele>1.58</ele>
        <time>2021-07-07T14:48:11Z</time>
      </trkpt>
      <trkpt lat="43.71174" lon="-1.41892">
        <ele>2.54</ele>
        <time>2021-07-07T14:48:20Z</time>
      </trkpt>
      <trkpt lat="43.71187" lon="-1.41894">
        <ele>3.5</ele>
        <time>2021-07-07T14:48:21Z</time>
      </trkpt>
      <trkpt lat="43.71202" lon="-1.41895">
        <ele>3.98</ele>
        <time>2021-07-07T14:48:22Z</time>
      </trkpt>
      <trkpt lat="43.71213" lon="-1.41901">
        <ele>4.46</ele>
        <time>2021-07-07T14:48:23Z</time>
      </trkpt>
      <trkpt lat="43.71225" lon="-1.41911">
        <ele>4.46</ele>
        <time>2021-07-07T14:48:24Z</time>
      </trkpt>
      <trkpt lat="43.71237" lon="-1.41921">
        <ele>4.46</ele>
        <time>2021-07-07T14:48:25Z</time>
      </trkpt>
      <trkpt lat="43.7125" lon="-1.4193">
        <ele>3.5</ele>
        <time>2021-07-07T14:48:26Z</time>
      </trkpt>
      <trkpt lat="43.71383" lon="-1.42063">
        <ele>0.14</ele>
        <time>2021-07-07T14:48:37Z</time>
      </trkpt>
      <trkpt lat="43.71494" lon="-1.42118">
        <ele>3.5</ele>
        <time>2021-07-07T14:48:45Z</time>
      </trkpt>
      <trkpt lat="43.71524" lon="-1.42122">
        <ele>1.58</ele>
        <time>2021-07-07T14:48:47Z</time>
      </trkpt>
      <trkpt lat="43.71539" lon="-1.42119">
        <ele>1.1</ele>
        <time>2021-07-07T14:48:48Z</time>
      </trkpt>
      <trkpt lat="43.7157" lon="-1.4211">
        <ele>1.1</ele>
        <time>2021-07-07T14:48:49Z</time>
      </trkpt>
      <trkpt lat="43.71585" lon="-1.42103">
        <ele>0.62</ele>
        <time>2021-07-07T14:48:50Z</time>
      </trkpt>
      <trkpt lat="43.71599" lon="-1.42096">
        <ele>0.14</ele>
        <time>2021-07-07T14:48:51Z</time>
      </trkpt>
      <trkpt lat="43.71599" lon="-1.42096">
        <ele>0.14</ele>
        <time>2021-07-07T14:48:52Z</time>
      </trkpt>
      <trkpt lat="43.71611" lon="-1.42087">
        <ele>0.14</ele>
        <time>2021-07-07T14:48:53Z</time>
      </trkpt>
      <trkpt lat="43.71623" lon="-1.42073">
        <ele>0.14</ele>
        <time>2021-07-07T14:48:54Z</time>
      </trkpt>
      <trkpt lat="43.71635" lon="-1.42059">
        <ele>1.58</ele>
        <time>2021-07-07T14:48:55Z</time>
      </trkpt>
      <trkpt lat="43.71645" lon="-1.42045">
        <ele>2.54</ele>
        <time>2021-07-07T14:48:56Z</time>
      </trkpt>
      <trkpt lat="43.71655" lon="-1.42029">
        <ele>3.5</ele>
        <time>2021-07-07T14:48:57Z</time>
      </trkpt>
      <trkpt lat="43.71809" lon="-1.41803">
        <ele>3.02</ele>
        <time>2021-07-07T14:49:12Z</time>
      </trkpt>
      <trkpt lat="43.71974" lon="-1.41649">
        <ele>-3.23</ele>
        <time>2021-07-07T14:49:24Z</time>
      </trkpt>
      <trkpt lat="43.72181" lon="-1.41515">
        <ele>-1.3</ele>
        <time>2021-07-07T14:49:37Z</time>
      </trkpt>
      <trkpt lat="43.72354" lon="-1.41405">
        <ele>-4.19</ele>
        <time>2021-07-07T14:49:51Z</time>
      </trkpt>
      <trkpt lat="43.7255" lon="-1.4128">
        <ele>-2.27</ele>
        <time>2021-07-07T14:50:06Z</time>
      </trkpt>
      <trkpt lat="43.72713" lon="-1.41183">
        <ele>1.1</ele>
        <time>2021-07-07T14:50:19Z</time>
      </trkpt>
      <trkpt lat="43.72828" lon="-1.4117">
        <ele>-1.3</ele>
        <time>2021-07-07T14:50:27Z</time>
      </trkpt>
      <trkpt lat="43.72953" lon="-1.41221">
        <ele>-1.79</ele>
        <time>2021-07-07T14:50:36Z</time>
      </trkpt>
      <trkpt lat="43.73056" lon="-1.41306">
        <ele>-0.82</ele>
        <time>2021-07-07T14:50:45Z</time>
      </trkpt>
      <trkpt lat="43.73067" lon="-1.41314">
        <ele>-0.34</ele>
        <time>2021-07-07T14:50:46Z</time>
      </trkpt>
      <trkpt lat="43.73078" lon="-1.41316">
        <ele>-0.34</ele>
        <time>2021-07-07T14:50:47Z</time>
      </trkpt>
      <trkpt lat="43.73089" lon="-1.41315">
        <ele>-1.3</ele>
        <time>2021-07-07T14:50:48Z</time>
      </trkpt>
      <trkpt lat="43.73101" lon="-1.41313">
        <ele>-2.27</ele>
        <time>2021-07-07T14:50:49Z</time>
      </trkpt>
      <trkpt lat="43.73114" lon="-1.4131">
        <ele>-3.23</ele>
        <time>2021-07-07T14:50:50Z</time>
      </trkpt>
      <trkpt lat="43.73126" lon="-1.41306">
        <ele>-3.71</ele>
        <time>2021-07-07T14:50:51Z</time>
      </trkpt>
      <trkpt lat="43.73293" lon="-1.41225">
        <ele>-2.75</ele>
        <time>2021-07-07T14:51:04Z</time>
      </trkpt>
      <trkpt lat="43.73429" lon="-1.41163">
        <ele>-3.23</ele>
        <time>2021-07-07T14:51:15Z</time>
      </trkpt>
      <trkpt lat="43.73442" lon="-1.4116">
        <ele>-2.75</ele>
        <time>2021-07-07T14:51:16Z</time>
      </trkpt>
      <trkpt lat="43.73456" lon="-1.4116">
        <ele>-1.79</ele>
        <time>2021-07-07T14:51:17Z</time>
      </trkpt>
      <trkpt lat="43.73469" lon="-1.41162">
        <ele>-1.79</ele>
        <time>2021-07-07T14:51:18Z</time>
      </trkpt>
      <trkpt lat="43.73482" lon="-1.41163">
        <ele>-1.3</ele>
        <time>2021-07-07T14:51:19Z</time>
      </trkpt>
      <trkpt lat="43.73494" lon="-1.41165">
        <ele>-2.27</ele>
        <time>2021-07-07T14:51:20Z</time>
      </trkpt>
      <trkpt lat="43.73506" lon="-1.41172">
        <ele>-2.27</ele>
        <time>2021-07-07T14:51:21Z</time>
      </trkpt>
      <trkpt lat="43.73518" lon="-1.41179">
        <ele>-1.79</ele>
        <time>2021-07-07T14:51:22Z</time>
      </trkpt>
      <trkpt lat="43.73531" lon="-1.41187">
        <ele>-1.3</ele>
        <time>2021-07-07T14:51:23Z</time>
      </trkpt>
      <trkpt lat="43.73601" lon="-1.4123">
        <ele>-1.79</ele>
        <time>2021-07-07T14:51:29Z</time>
      </trkpt>
      <trkpt lat="43.7361" lon="-1.41235">
        <ele>-1.3</ele>
        <time>2021-07-07T14:51:30Z</time>
      </trkpt>
      <trkpt lat="43.73621" lon="-1.41236">
        <ele>-1.3</ele>
        <time>2021-07-07T14:51:31Z</time>
      </trkpt>
      <trkpt lat="43.73633" lon="-1.41237">
        <ele>-1.79</ele>
        <time>2021-07-07T14:51:32Z</time>
      </trkpt>
      <trkpt lat="43.73655" lon="-1.41233">
        <ele>-3.23</ele>
        <time>2021-07-07T14:51:33Z</time>
      </trkpt>
      <trkpt lat="43.73655" lon="-1.41233">
        <ele>-2.75</ele>
        <time>2021-07-07T14:51:34Z</time>
      </trkpt>
      <trkpt lat="43.73667" lon="-1.41227">
        <ele>-2.75</ele>
        <time>2021-07-07T14:51:35Z</time>
      </trkpt>
      <trkpt lat="43.73677" lon="-1.41221">
        <ele>-2.75</ele>
        <time>2021-07-07T14:51:36Z</time>
      </trkpt>
      <trkpt lat="43.73687" lon="-1.41213">
        <ele>-2.75</ele>
        <time>2021-07-07T14:51:37Z</time>
      </trkpt>
      <trkpt lat="43.73846" lon="-1.41085">
        <ele>-4.19</ele>
        <time>2021-07-07T14:51:50Z</time>
      </trkpt>
      <trkpt lat="43.73988" lon="-1.4097">
        <ele>-4.19</ele>
        <time>2021-07-07T14:52:00Z</time>
      </trkpt>
      <trkpt lat="43.74149" lon="-1.40841">
        <ele>-5.63</ele>
        <time>2021-07-07T14:52:11Z</time>
      </trkpt>
      <trkpt lat="43.74369" lon="-1.40663">
        <ele>-6.59</ele>
        <time>2021-07-07T14:52:25Z</time>
      </trkpt>
      <trkpt lat="43.74668" lon="-1.40421">
        <ele>-4.19</ele>
        <time>2021-07-07T14:52:43Z</time>
      </trkpt>
      <trkpt lat="43.74913" lon="-1.40223">
        <ele>-1.3</ele>
        <time>2021-07-07T14:52:58Z</time>
      </trkpt>
      <trkpt lat="43.75183" lon="-1.40005">
        <ele>-0.82</ele>
        <time>2021-07-07T14:53:15Z</time>
      </trkpt>
      <trkpt lat="43.75347" lon="-1.39873">
        <ele>-1.79</ele>
        <time>2021-07-07T14:53:25Z</time>
      </trkpt>
      <trkpt lat="43.7563" lon="-1.39644">
        <ele>-2.27</ele>
        <time>2021-07-07T14:53:42Z</time>
      </trkpt>
      <trkpt lat="43.75852" lon="-1.39464">
        <ele>-2.27</ele>
        <time>2021-07-07T14:53:56Z</time>
      </trkpt>
      <trkpt lat="43.76021" lon="-1.39329">
        <ele>-6.11</ele>
        <time>2021-07-07T14:54:08Z</time>
      </trkpt>
      <trkpt lat="43.76173" lon="-1.39206">
        <ele>-6.11</ele>
        <time>2021-07-07T14:54:19Z</time>
      </trkpt>
      <trkpt lat="43.76279" lon="-1.3912">
        <ele>-5.63</ele>
        <time>2021-07-07T14:54:29Z</time>
      </trkpt>
      <trkpt lat="43.76294" lon="-1.39105">
        <ele>-5.15</ele>
        <time>2021-07-07T14:54:31Z</time>
      </trkpt>
      <trkpt lat="43.76303" lon="-1.39096">
        <ele>-4.67</ele>
        <time>2021-07-07T14:54:32Z</time>
      </trkpt>
      <trkpt lat="43.76421" lon="-1.3897">
        <ele>-5.63</ele>
        <time>2021-07-07T14:54:43Z</time>
      </trkpt>
      <trkpt lat="43.76502" lon="-1.38871">
        <ele>-4.67</ele>
        <time>2021-07-07T14:54:53Z</time>
      </trkpt>
      <trkpt lat="43.7651" lon="-1.38853">
        <ele>-4.19</ele>
        <time>2021-07-07T14:54:55Z</time>
      </trkpt>
      <trkpt lat="43.76514" lon="-1.38844">
        <ele>-3.71</ele>
        <time>2021-07-07T14:54:56Z</time>
      </trkpt>
      <trkpt lat="43.7652" lon="-1.3882">
        <ele>-3.23</ele>
        <time>2021-07-07T14:54:59Z</time>
      </trkpt>
      <trkpt lat="43.76523" lon="-1.38813">
        <ele>-2.75</ele>
        <time>2021-07-07T14:55:00Z</time>
      </trkpt>
      <trkpt lat="43.76529" lon="-1.38804">
        <ele>-2.27</ele>
        <time>2021-07-07T14:55:01Z</time>
      </trkpt>
      <trkpt lat="43.76534" lon="-1.38801">
        <ele>-1.79</ele>
        <time>2021-07-07T14:55:02Z</time>
      </trkpt>
      <trkpt lat="43.76539" lon="-1.38799">
        <ele>-2.75</ele>
        <time>2021-07-07T14:55:03Z</time>
      </trkpt>
      <trkpt lat="43.76547" lon="-1.388">
        <ele>-2.75</ele>
        <time>2021-07-07T14:55:04Z</time>
      </trkpt>
      <trkpt lat="43.76553" lon="-1.38801">
        <ele>-3.23</ele>
        <time>2021-07-07T14:55:05Z</time>
      </trkpt>
      <trkpt lat="43.76558" lon="-1.38806">
        <ele>-2.75</ele>
        <time>2021-07-07T14:55:06Z</time>
      </trkpt>
      <trkpt lat="43.76563" lon="-1.38813">
        <ele>-2.27</ele>
        <time>2021-07-07T14:55:07Z</time>
      </trkpt>
      <trkpt lat="43.76567" lon="-1.38818">
        <ele>-2.27</ele>
        <time>2021-07-07T14:55:08Z</time>
      </trkpt>
      <trkpt lat="43.76567" lon="-1.38824">
        <ele>-2.27</ele>
        <time>2021-07-07T14:55:09Z</time>
      </trkpt>
      <trkpt lat="43.76568" lon="-1.38832">
        <ele>-2.27</ele>
        <time>2021-07-07T14:55:10Z</time>
      </trkpt>
      <trkpt lat="43.76569" lon="-1.38841">
        <ele>-2.27</ele>
        <time>2021-07-07T14:55:11Z</time>
      </trkpt>
      <trkpt lat="43.76569" lon="-1.38848">
        <ele>-2.27</ele>
        <time>2021-07-07T14:55:12Z</time>
      </trkpt>
      <trkpt lat="43.76566" lon="-1.38855">
        <ele>-2.27</ele>
        <time>2021-07-07T14:55:13Z</time>
      </trkpt>
      <trkpt lat="43.76563" lon="-1.38862">
        <ele>-2.27</ele>
        <time>2021-07-07T14:55:14Z</time>
      </trkpt>
      <trkpt lat="43.76561" lon="-1.38873">
        <ele>-2.27</ele>
        <time>2021-07-07T14:55:15Z</time>
      </trkpt>
      <trkpt lat="43.76561" lon="-1.38882">
        <ele>-2.27</ele>
        <time>2021-07-07T14:55:16Z</time>
      </trkpt>
      <trkpt lat="43.76561" lon="-1.38892">
        <ele>-2.27</ele>
        <time>2021-07-07T14:55:17Z</time>
      </trkpt>
      <trkpt lat="43.76562" lon="-1.38902">
        <ele>-3.23</ele>
        <time>2021-07-07T14:55:18Z</time>
      </trkpt>
      <trkpt lat="43.76565" lon="-1.38912">
        <ele>-3.23</ele>
        <time>2021-07-07T14:55:19Z</time>
      </trkpt>
      <trkpt lat="43.76569" lon="-1.38923">
        <ele>-2.75</ele>
        <time>2021-07-07T14:55:20Z</time>
      </trkpt>
      <trkpt lat="43.76574" lon="-1.38937">
        <ele>-3.23</ele>
        <time>2021-07-07T14:55:21Z</time>
      </trkpt>
      <trkpt lat="43.76668" lon="-1.39045">
        <ele>-2.75</ele>
        <time>2021-07-07T14:55:31Z</time>
      </trkpt>
      <trkpt lat="43.76838" lon="-1.39152">
        <ele>-2.27</ele>
        <time>2021-07-07T14:55:44Z</time>
      </trkpt>
      <trkpt lat="43.77008" lon="-1.39248">
        <ele>0.14</ele>
        <time>2021-07-07T14:55:56Z</time>
      </trkpt>
      <trkpt lat="43.77253" lon="-1.3939">
        <ele>3.5</ele>
        <time>2021-07-07T14:56:13Z</time>
      </trkpt>
      <trkpt lat="43.77371" lon="-1.39452">
        <ele>3.5</ele>
        <time>2021-07-07T14:56:23Z</time>
      </trkpt>
      <trkpt lat="43.77423" lon="-1.39461">
        <ele>3.5</ele>
        <time>2021-07-07T14:56:29Z</time>
      </trkpt>
      <trkpt lat="43.7743" lon="-1.39461">
        <ele>3.02</ele>
        <time>2021-07-07T14:56:30Z</time>
      </trkpt>
      <trkpt lat="43.77436" lon="-1.3946">
        <ele>2.54</ele>
        <time>2021-07-07T14:56:31Z</time>
      </trkpt>
      <trkpt lat="43.77442" lon="-1.39457">
        <ele>2.54</ele>
        <time>2021-07-07T14:56:32Z</time>
      </trkpt>
      <trkpt lat="43.77448" lon="-1.39453">
        <ele>2.54</ele>
        <time>2021-07-07T14:56:33Z</time>
      </trkpt>
      <trkpt lat="43.77455" lon="-1.39452">
        <ele>2.06</ele>
        <time>2021-07-07T14:56:34Z</time>
      </trkpt>
      <trkpt lat="43.77462" lon="-1.39453">
        <ele>2.06</ele>
        <time>2021-07-07T14:56:35Z</time>
      </trkpt>
      <trkpt lat="43.77468" lon="-1.39457">
        <ele>2.06</ele>
        <time>2021-07-07T14:56:36Z</time>
      </trkpt>
      <trkpt lat="43.77473" lon="-1.39463">
        <ele>1.58</ele>
        <time>2021-07-07T14:56:37Z</time>
      </trkpt>
      <trkpt lat="43.77476" lon="-1.3947">
        <ele>1.58</ele>
        <time>2021-07-07T14:56:38Z</time>
      </trkpt>
      <trkpt lat="43.77477" lon="-1.39478">
        <ele>1.1</ele>
        <time>2021-07-07T14:56:39Z</time>
      </trkpt>
      <trkpt lat="43.7748" lon="-1.39486">
        <ele>0.62</ele>
        <time>2021-07-07T14:56:40Z</time>
      </trkpt>
      <trkpt lat="43.77483" lon="-1.39493">
        <ele>1.1</ele>
        <time>2021-07-07T14:56:41Z</time>
      </trkpt>
      <trkpt lat="43.77486" lon="-1.395">
        <ele>1.58</ele>
        <time>2021-07-07T14:56:42Z</time>
      </trkpt>
      <trkpt lat="43.77494" lon="-1.39516">
        <ele>1.58</ele>
        <time>2021-07-07T14:56:43Z</time>
      </trkpt>
      <trkpt lat="43.775" lon="-1.39523">
        <ele>1.58</ele>
        <time>2021-07-07T14:56:44Z</time>
      </trkpt>
      <trkpt lat="43.77507" lon="-1.3953">
        <ele>1.58</ele>
        <time>2021-07-07T14:56:45Z</time>
      </trkpt>
      <trkpt lat="43.77507" lon="-1.3953">
        <ele>1.58</ele>
        <time>2021-07-07T14:56:46Z</time>
      </trkpt>
      <trkpt lat="43.77513" lon="-1.39537">
        <ele>1.58</ele>
        <time>2021-07-07T14:56:47Z</time>
      </trkpt>
      <trkpt lat="43.77599" lon="-1.39589">
        <ele>2.54</ele>
        <time>2021-07-07T14:56:56Z</time>
      </trkpt>
      <trkpt lat="43.77738" lon="-1.39669">
        <ele>2.54</ele>
        <time>2021-07-07T14:57:08Z</time>
      </trkpt>
      <trkpt lat="43.7787" lon="-1.39746">
        <ele>3.98</ele>
        <time>2021-07-07T14:57:21Z</time>
      </trkpt>
      <trkpt lat="43.77892" lon="-1.39752">
        <ele>4.46</ele>
        <time>2021-07-07T14:57:24Z</time>
      </trkpt>
      <trkpt lat="43.77898" lon="-1.39753">
        <ele>4.46</ele>
        <time>2021-07-07T14:57:25Z</time>
      </trkpt>
      <trkpt lat="43.77916" lon="-1.39748">
        <ele>2.54</ele>
        <time>2021-07-07T14:57:28Z</time>
      </trkpt>
      <trkpt lat="43.77928" lon="-1.39752">
        <ele>2.54</ele>
        <time>2021-07-07T14:57:29Z</time>
      </trkpt>
      <trkpt lat="43.77928" lon="-1.39752">
        <ele>2.06</ele>
        <time>2021-07-07T14:57:30Z</time>
      </trkpt>
      <trkpt lat="43.77933" lon="-1.39757">
        <ele>1.58</ele>
        <time>2021-07-07T14:57:31Z</time>
      </trkpt>
      <trkpt lat="43.77936" lon="-1.39763">
        <ele>1.1</ele>
        <time>2021-07-07T14:57:32Z</time>
      </trkpt>
      <trkpt lat="43.77937" lon="-1.39776">
        <ele>0.62</ele>
        <time>2021-07-07T14:57:33Z</time>
      </trkpt>
      <trkpt lat="43.77937" lon="-1.39776">
        <ele>0.62</ele>
        <time>2021-07-07T14:57:34Z</time>
      </trkpt>
      <trkpt lat="43.77937" lon="-1.39784">
        <ele>0.14</ele>
        <time>2021-07-07T14:57:35Z</time>
      </trkpt>
      <trkpt lat="43.77935" lon="-1.39791">
        <ele>-0.82</ele>
        <time>2021-07-07T14:57:36Z</time>
      </trkpt>
      <trkpt lat="43.77931" lon="-1.39797">
        <ele>-1.3</ele>
        <time>2021-07-07T14:57:37Z</time>
      </trkpt>
      <trkpt lat="43.77925" lon="-1.39801">
        <ele>-2.27</ele>
        <time>2021-07-07T14:57:38Z</time>
      </trkpt>
      <trkpt lat="43.7792" lon="-1.39803">
        <ele>-1.79</ele>
        <time>2021-07-07T14:57:39Z</time>
      </trkpt>
      <trkpt lat="43.77916" lon="-1.3981">
        <ele>-1.79</ele>
        <time>2021-07-07T14:57:40Z</time>
      </trkpt>
      <trkpt lat="43.77913" lon="-1.39817">
        <ele>-2.27</ele>
        <time>2021-07-07T14:57:41Z</time>
      </trkpt>
      <trkpt lat="43.7791" lon="-1.39825">
        <ele>-2.27</ele>
        <time>2021-07-07T14:57:42Z</time>
      </trkpt>
      <trkpt lat="43.77908" lon="-1.39833">
        <ele>-2.27</ele>
        <time>2021-07-07T14:57:43Z</time>
      </trkpt>
      <trkpt lat="43.77904" lon="-1.39953">
        <ele>-3.23</ele>
        <time>2021-07-07T14:57:54Z</time>
      </trkpt>
      <trkpt lat="43.7791" lon="-1.40018">
        <ele>-3.23</ele>
        <time>2021-07-07T14:58:01Z</time>
      </trkpt>
      <trkpt lat="43.77913" lon="-1.40026">
        <ele>-3.23</ele>
        <time>2021-07-07T14:58:02Z</time>
      </trkpt>
      <trkpt lat="43.77915" lon="-1.40035">
        <ele>-3.23</ele>
        <time>2021-07-07T14:58:03Z</time>
      </trkpt>
      <trkpt lat="43.77944" lon="-1.40089">
        <ele>-3.23</ele>
        <time>2021-07-07T14:58:11Z</time>
      </trkpt>
      <trkpt lat="43.78011" lon="-1.40131">
        <ele>-2.75</ele>
        <time>2021-07-07T14:58:22Z</time>
      </trkpt>
      <trkpt lat="43.78097" lon="-1.40189">
        <ele>-3.23</ele>
        <time>2021-07-07T14:58:36Z</time>
      </trkpt>
      <trkpt lat="43.78101" lon="-1.40194">
        <ele>-3.23</ele>
        <time>2021-07-07T14:58:37Z</time>
      </trkpt>
      <trkpt lat="43.78105" lon="-1.40198">
        <ele>-2.75</ele>
        <time>2021-07-07T14:58:38Z</time>
      </trkpt>
      <trkpt lat="43.78108" lon="-1.40203">
        <ele>-3.23</ele>
        <time>2021-07-07T14:58:39Z</time>
      </trkpt>
      <trkpt lat="43.78114" lon="-1.40212">
        <ele>-3.23</ele>
        <time>2021-07-07T14:58:40Z</time>
      </trkpt>
      <trkpt lat="43.78114" lon="-1.40212">
        <ele>-3.23</ele>
        <time>2021-07-07T14:58:41Z</time>
      </trkpt>
      <trkpt lat="43.78116" lon="-1.40216">
        <ele>-3.23</ele>
        <time>2021-07-07T14:58:42Z</time>
      </trkpt>
      <trkpt lat="43.78118" lon="-1.4022">
        <ele>-2.75</ele>
        <time>2021-07-07T14:58:43Z</time>
      </trkpt>
      <trkpt lat="43.78123" lon="-1.40222">
        <ele>-2.75</ele>
        <time>2021-07-07T14:58:44Z</time>
      </trkpt>
      <trkpt lat="43.7813" lon="-1.40225">
        <ele>-2.75</ele>
        <time>2021-07-07T14:58:45Z</time>
      </trkpt>
      <trkpt lat="43.7813" lon="-1.40225">
        <ele>-2.75</ele>
        <time>2021-07-07T14:58:46Z</time>
      </trkpt>
      <trkpt lat="43.7816" lon="-1.40232">
        <ele>-2.27</ele>
        <time>2021-07-07T14:58:57Z</time>
      </trkpt>
      <trkpt lat="43.78173" lon="-1.40229">
        <ele>-2.27</ele>
        <time>2021-07-07T14:59:00Z</time>
      </trkpt>
      <trkpt lat="43.78242" lon="-1.40199">
        <ele>-2.27</ele>
        <time>2021-07-07T14:59:11Z</time>
      </trkpt>
      <trkpt lat="43.78352" lon="-1.40159">
        <ele>-1.3</ele>
        <time>2021-07-07T14:59:26Z</time>
      </trkpt>
      <trkpt lat="43.78402" lon="-1.40146">
        <ele>-1.3</ele>
        <time>2021-07-07T14:59:36Z</time>
      </trkpt>
      <trkpt lat="43.78459" lon="-1.40147">
        <ele>-1.3</ele>
        <time>2021-07-07T14:59:45Z</time>
      </trkpt>
      <trkpt lat="43.78466" lon="-1.40148">
        <ele>-1.3</ele>
        <time>2021-07-07T14:59:46Z</time>
      </trkpt>
      <trkpt lat="43.78472" lon="-1.40149">
        <ele>-1.3</ele>
        <time>2021-07-07T14:59:47Z</time>
      </trkpt>
      <trkpt lat="43.78477" lon="-1.40153">
        <ele>-1.3</ele>
        <time>2021-07-07T14:59:48Z</time>
      </trkpt>
      <trkpt lat="43.78483" lon="-1.40157">
        <ele>-1.3</ele>
        <time>2021-07-07T14:59:49Z</time>
      </trkpt>
      <trkpt lat="43.78551" lon="-1.40219">
        <ele>-1.79</ele>
        <time>2021-07-07T15:00:03Z</time>
      </trkpt>
      <trkpt lat="43.7859" lon="-1.40258">
        <ele>-1.79</ele>
        <time>2021-07-07T15:00:17Z</time>
      </trkpt>
      <trkpt lat="43.7863" lon="-1.40306">
        <ele>-2.27</ele>
        <time>2021-07-07T15:00:30Z</time>
      </trkpt>
      <trkpt lat="43.78635" lon="-1.40317">
        <ele>-2.27</ele>
        <time>2021-07-07T15:00:31Z</time>
      </trkpt>
      <trkpt lat="43.78636" lon="-1.40322">
        <ele>-1.79</ele>
        <time>2021-07-07T15:00:32Z</time>
      </trkpt>
      <trkpt lat="43.78646" lon="-1.40428">
        <ele>-1.3</ele>
        <time>2021-07-07T15:00:46Z</time>
      </trkpt>
      <trkpt lat="43.78662" lon="-1.40589">
        <ele>-0.82</ele>
        <time>2021-07-07T15:01:04Z</time>
      </trkpt>
      <trkpt lat="43.78666" lon="-1.40627">
        <ele>-0.34</ele>
        <time>2021-07-07T15:01:11Z</time>
      </trkpt>
      <trkpt lat="43.78666" lon="-1.4063">
        <ele>-0.34</ele>
        <time>2021-07-07T15:01:12Z</time>
      </trkpt>
      <trkpt lat="43.78662" lon="-1.40628">
        <ele>-0.34</ele>
        <time>2021-07-07T15:01:13Z</time>
      </trkpt>
      <trkpt lat="43.78598" lon="-1.40643">
        <ele>-1.79</ele>
        <time>2021-07-07T15:01:25Z</time>
      </trkpt>
      <trkpt lat="43.78551" lon="-1.40657">
        <ele>-1.3</ele>
        <time>2021-07-07T15:01:33Z</time>
      </trkpt>
      <trkpt lat="43.78546" lon="-1.40659">
        <ele>-1.3</ele>
        <time>2021-07-07T15:01:34Z</time>
      </trkpt>
      <trkpt lat="43.7854" lon="-1.40661">
        <ele>-0.82</ele>
        <time>2021-07-07T15:01:35Z</time>
      </trkpt>
      <trkpt lat="43.78535" lon="-1.40665">
        <ele>-0.82</ele>
        <time>2021-07-07T15:01:36Z</time>
      </trkpt>
      <trkpt lat="43.78531" lon="-1.40672">
        <ele>-0.82</ele>
        <time>2021-07-07T15:01:37Z</time>
      </trkpt>
      <trkpt lat="43.78527" lon="-1.40679">
        <ele>-0.82</ele>
        <time>2021-07-07T15:01:38Z</time>
      </trkpt>
      <trkpt lat="43.78466" lon="-1.40795">
        <ele>0.14</ele>
        <time>2021-07-07T15:01:52Z</time>
      </trkpt>
      <trkpt lat="43.7843" lon="-1.40863">
        <ele>-0.34</ele>
        <time>2021-07-07T15:02:03Z</time>
      </trkpt>
      <trkpt lat="43.78424" lon="-1.40875">
        <ele>-0.34</ele>
        <time>2021-07-07T15:02:04Z</time>
      </trkpt>
      <trkpt lat="43.78424" lon="-1.40875">
        <ele>-0.34</ele>
        <time>2021-07-07T15:02:05Z</time>
      </trkpt>
      <trkpt lat="43.78423" lon="-1.40881">
        <ele>-0.34</ele>
        <time>2021-07-07T15:02:06Z</time>
      </trkpt>
      <trkpt lat="43.78423" lon="-1.40888">
        <ele>-0.34</ele>
        <time>2021-07-07T15:02:07Z</time>
      </trkpt>
      <trkpt lat="43.78423" lon="-1.40893">
        <ele>-0.82</ele>
        <time>2021-07-07T15:02:08Z</time>
      </trkpt>
      <trkpt lat="43.78424" lon="-1.409">
        <ele>-0.82</ele>
        <time>2021-07-07T15:02:09Z</time>
      </trkpt>
      <trkpt lat="43.78437" lon="-1.40977">
        <ele>-0.82</ele>
        <time>2021-07-07T15:02:23Z</time>
      </trkpt>
      <trkpt lat="43.78442" lon="-1.40999">
        <ele>-1.3</ele>
        <time>2021-07-07T15:02:27Z</time>
      </trkpt>
      <trkpt lat="43.78442" lon="-1.40999">
        <ele>-1.3</ele>
        <time>2021-07-07T15:02:28Z</time>
      </trkpt>
      <trkpt lat="43.78443" lon="-1.41005">
        <ele>-1.3</ele>
        <time>2021-07-07T15:02:29Z</time>
      </trkpt>
      <trkpt lat="43.78445" lon="-1.41009">
        <ele>-1.3</ele>
        <time>2021-07-07T15:02:30Z</time>
      </trkpt>
      <trkpt lat="43.78453" lon="-1.41015">
        <ele>-1.3</ele>
        <time>2021-07-07T15:02:31Z</time>
      </trkpt>
      <trkpt lat="43.78453" lon="-1.41015">
        <ele>-1.79</ele>
        <time>2021-07-07T15:02:32Z</time>
      </trkpt>
      <trkpt lat="43.78457" lon="-1.41018">
        <ele>-1.79</ele>
        <time>2021-07-07T15:02:33Z</time>
      </trkpt>
      <trkpt lat="43.78465" lon="-1.41023">
        <ele>-1.79</ele>
        <time>2021-07-07T15:02:34Z</time>
      </trkpt>
      <trkpt lat="43.78485" lon="-1.4103">
        <ele>-1.79</ele>
        <time>2021-07-07T15:02:41Z</time>
      </trkpt>
      <trkpt lat="43.78487" lon="-1.41031">
        <ele>-1.79</ele>
        <time>2021-07-07T15:02:42Z</time>
      </trkpt>
      <trkpt lat="43.78488" lon="-1.41031">
        <ele>-2.27</ele>
        <time>2021-07-07T15:02:43Z</time>
      </trkpt>
      <trkpt lat="43.78484" lon="-1.41044">
        <ele>-2.27</ele>
        <time>2021-07-07T15:02:54Z</time>
      </trkpt>
      <trkpt lat="43.78485" lon="-1.41054">
        <ele>16.48</ele>
        <time>2021-07-07T15:47:16Z</time>
      </trkpt>
      <trkpt lat="43.78483" lon="-1.41044">
        <ele>2.54</ele>
        <time>2021-07-07T15:47:31Z</time>
      </trkpt>
      <trkpt lat="43.78483" lon="-1.41046">
        <ele>2.54</ele>
        <time>2021-07-07T15:47:37Z</time>
      </trkpt>
      <trkpt lat="43.78474" lon="-1.41047">
        <ele>2.54</ele>
        <time>2021-07-07T15:47:43Z</time>
      </trkpt>
      <trkpt lat="43.78473" lon="-1.41047">
        <ele>2.54</ele>
        <time>2021-07-07T15:47:44Z</time>
      </trkpt>
      <trkpt lat="43.78473" lon="-1.41047">
        <ele>2.54</ele>
        <time>2021-07-07T15:47:45Z</time>
      </trkpt>
      <trkpt lat="43.78464" lon="-1.41036">
        <ele>2.54</ele>
        <time>2021-07-07T15:47:46Z</time>
      </trkpt>
      <trkpt lat="43.78464" lon="-1.41036">
        <ele>2.06</ele>
        <time>2021-07-07T15:47:47Z</time>
      </trkpt>
      <trkpt lat="43.78477" lon="-1.41027">
        <ele>2.06</ele>
        <time>2021-07-07T15:47:48Z</time>
      </trkpt>
      <trkpt lat="43.78482" lon="-1.41029">
        <ele>2.06</ele>
        <time>2021-07-07T15:47:49Z</time>
      </trkpt>
      <trkpt lat="43.78482" lon="-1.41029">
        <ele>2.06</ele>
        <time>2021-07-07T15:47:50Z</time>
      </trkpt>
      <trkpt lat="43.78485" lon="-1.4103">
        <ele>2.54</ele>
        <time>2021-07-07T15:47:51Z</time>
      </trkpt>
      <trkpt lat="43.78488" lon="-1.41031">
        <ele>2.54</ele>
        <time>2021-07-07T15:47:52Z</time>
      </trkpt>
      <trkpt lat="43.78491" lon="-1.41033">
        <ele>3.02</ele>
        <time>2021-07-07T15:47:53Z</time>
      </trkpt>
      <trkpt lat="43.78522" lon="-1.41063">
        <ele>2.06</ele>
        <time>2021-07-07T15:48:06Z</time>
      </trkpt>
      <trkpt lat="43.78525" lon="-1.41121">
        <ele>0.62</ele>
        <time>2021-07-07T15:48:22Z</time>
      </trkpt>
      <trkpt lat="43.7855" lon="-1.41185">
        <ele>1.1</ele>
        <time>2021-07-07T15:48:36Z</time>
      </trkpt>
      <trkpt lat="43.78577" lon="-1.41234">
        <ele>4.94</ele>
        <time>2021-07-07T15:48:49Z</time>
      </trkpt>
      <trkpt lat="43.78584" lon="-1.41231">
        <ele>5.42</ele>
        <time>2021-07-07T15:48:58Z</time>
      </trkpt>
      <trkpt lat="43.78589" lon="-1.41229">
        <ele>5.42</ele>
        <time>2021-07-07T15:53:35Z</time>
      </trkpt>
      <trkpt lat="43.78591" lon="-1.41228">
        <ele>5.42</ele>
        <time>2021-07-07T15:53:36Z</time>
      </trkpt>
      <trkpt lat="43.78595" lon="-1.41226">
        <ele>5.42</ele>
        <time>2021-07-07T15:53:37Z</time>
      </trkpt>
      <trkpt lat="43.78595" lon="-1.41226">
        <ele>5.42</ele>
        <time>2021-07-07T15:53:38Z</time>
      </trkpt>
      <trkpt lat="43.78596" lon="-1.41226">
        <ele>4.94</ele>
        <time>2021-07-07T15:53:39Z</time>
      </trkpt>
      <trkpt lat="43.78597" lon="-1.41225">
        <ele>4.94</ele>
        <time>2021-07-07T15:53:40Z</time>
      </trkpt>
      <trkpt lat="43.78598" lon="-1.41229">
        <ele>4.94</ele>
        <time>2021-07-07T15:53:55Z</time>
      </trkpt>
      <trkpt lat="43.78598" lon="-1.41228">
        <ele>4.94</ele>
        <time>2021-07-07T15:53:59Z</time>
      </trkpt>
      <trkpt lat="43.78599" lon="-1.41224">
        <ele>4.94</ele>
        <time>2021-07-07T15:54:03Z</time>
      </trkpt>
      <trkpt lat="43.78601" lon="-1.41224">
        <ele>4.94</ele>
        <time>2021-07-07T15:54:04Z</time>
      </trkpt>
      <trkpt lat="43.78607" lon="-1.41221">
        <ele>4.94</ele>
        <time>2021-07-07T15:54:05Z</time>
      </trkpt>
      <trkpt lat="43.78611" lon="-1.41219">
        <ele>5.42</ele>
        <time>2021-07-07T15:54:06Z</time>
      </trkpt>
      <trkpt lat="43.78668" lon="-1.41195">
        <ele>6.39</ele>
        <time>2021-07-07T15:54:22Z</time>
      </trkpt>
    </trkseg>
  </trk>
</gpx>